Auburn, New Hampshire
Current Conditions -  °F | °C
As of 9:01 PM on Wednesday 26 Nov 2014 (Local Time) from KMHT Reporting Station
Light Snow Light Snow  
Wind Chill: 24°   Ceiling: 800
Heat Index: 33°   Visibility: 1.2mi
Dew Point: 30°   Wind: 13mph
Humidity: 89%   Direction: 360°N
Pressure: 29.79"   Gusts: NA
Location:  43°N, 71.35°W
Report Text: KMHT 270201Z 36011KT 1 1/4SM -SN BR BKN008 OVC013 01/M01 A2979 RMK AO2 TWR VIS 1 1/2 P0001 T00061011
Loading
Personal Weather Stations






























Interactive Weather Map New forecast layout! Learn more

10-Day Weather Forecast

Advertisements
Track Severe Weather on mobile